sensor_id;sensor_type;location;lat;lon;timestamp;P1;durP1;ratioP1;P2;durP2;ratioP2
30133;SDS011;16946;49.984;10.672;2022-08-21T00:00:12;9.73;;;8.20;;
30133;SDS011;16946;49.984;10.672;2022-08-21T00:00:46;9.57;;;7.50;;
30133;SDS011;16946;49.984;10.672;2022-08-21T00:01:19;8.43;;;7.35;;
30133;SDS011;16946;49.984;10.672;2022-08-21T00:01:52;10.13;;;8.20;;
30133;SDS011;16946;49.984;10.672;2022-08-21T00:02:24;7.90;;;7.10;;
30133;SDS011;16946;49.984;10.672;2022-08-21T00:02:57;10.75;;;9.23;;
30133;SDS011;16946;49.984;10.672;2022-08-21T00:03:33;11.40;;;8.63;;
30133;SDS011;16946;49.984;10.672;2022-08-21T00:04:04;9.67;;;7.90;;
30133;SDS011;16946;49.984;10.672;2022-08-21T00:04:36;11.30;;;7.90;;
30133;SDS011;16946;49.984;10.672;2022-08-21T00:05:06;9.70;;;6.93;;
30133;SDS011;16946;49.984;10.672;2022-08-21T00:05:39;10.40;;;7.57;;
30133;SDS011;16946;49.984;10.672;2022-08-21T00:06:12;8.73;;;7.57;;
30133;SDS011;16946;49.984;10.672;2022-08-21T00:06:43;8.47;;;7.50;;
30133;SDS011;16946;49.984;10.672;2022-08-21T00:07:13;8.33;;;7.50;;
30133;SDS011;16946;49.984;10.672;2022-08-21T00:07:44;7.70;;;6.90;;
30133;SDS011;16946;49.984;10.672;2022-08-21T00:08:16;7.33;;;5.80;;
30133;SDS011;16946;49.984;10.672;2022-08-21T00:08:47;8.90;;;7.95;;
30133;SDS011;16946;49.984;10.672;2022-08-21T00:09:18;7.20;;;6.17;;
30133;SDS011;16946;49.984;10.672;2022-08-21T00:09:49;8.45;;;6.32;;
30133;SDS011;16946;49.984;10.672;2022-08-21T00:10:20;6.60;;;5.50;;
30133;SDS011;16946;49.984;10.672;2022-08-21T00:10:51;7.55;;;5.68;;
30133;SDS011;16946;49.984;10.672;2022-08-21T00:11:22;10.43;;;9.03;;
30133;SDS011;16946;49.984;10.672;2022-08-21T00:11:53;8.33;;;7.10;;
30133;SDS011;16946;49.984;10.672;2022-08-21T00:12:23;7.00;;;6.20;;
30133;SDS011;16946;49.984;10.672;2022-08-21T00:12:54;9.70;;;8.57;;
30133;SDS011;16946;49.984;10.672;2022-08-21T00:13:25;8.00;;;7.18;;
30133;SDS011;16946;49.984;10.672;2022-08-21T00:13:56;6.67;;;6.07;;
30133;SDS011;16946;49.984;10.672;2022-08-21T00:14:26;7.00;;;6.30;;
30133;SDS011;16946;49.984;10.672;2022-08-21T00:14:57;7.67;;;5.70;;
30133;SDS011;16946;49.984;10.672;2022-08-21T00:15:29;6.40;;;5.80;;
30133;SDS011;16946;49.984;10.672;2022-08-21T00:16:05;6.68;;;6.07;;
30133;SDS011;16946;49.984;10.672;2022-08-21T00:16:35;7.23;;;6.53;;
30133;SDS011;16946;49.984;10.672;2022-08-21T00:17:06;7.00;;;6.38;;
30133;SDS011;16946;49.984;10.672;2022-08-21T00:17:37;5.60;;;5.07;;
30133;SDS011;16946;49.984;10.672;2022-08-21T00:18:08;6.80;;;6.10;;
30133;SDS011;16946;49.984;10.672;2022-08-21T00:18:40;7.40;;;6.15;;
30133;SDS011;16946;49.984;10.672;2022-08-21T00:19:11;6.63;;;6.00;;
30133;SDS011;16946;49.984;10.672;2022-08-21T00:19:42;7.57;;;5.73;;
30133;SDS011;16946;49.984;10.672;2022-08-21T00:20:13;6.80;;;6.10;;
30133;SDS011;16946;49.984;10.672;2022-08-21T00:20:45;7.50;;;5.82;;
30133;SDS011;16946;49.984;10.672;2022-08-21T00:21:16;6.40;;;5.78;;
30133;SDS011;16946;49.984;10.672;2022-08-21T00:21:47;8.00;;;6.80;;
30133;SDS011;16946;49.984;10.672;2022-08-21T00:22:18;8.10;;;7.27;;
30133;SDS011;16946;49.984;10.672;2022-08-21T00:22:49;8.33;;;7.30;;
30133;SDS011;16946;49.984;10.672;2022-08-21T00:23:19;9.70;;;7.88;;
30133;SDS011;16946;49.984;10.672;2022-08-21T00:23:50;10.93;;;8.00;;
30133;SDS011;16946;49.984;10.672;2022-08-21T00:24:21;7.25;;;6.55;;
30133;SDS011;16946;49.984;10.672;2022-08-21T00:24:53;7.22;;;6.38;;
30133;SDS011;16946;49.984;10.672;2022-08-21T00:25:23;7.13;;;6.43;;
30133;SDS011;16946;49.984;10.672;2022-08-21T00:25:54;7.77;;;6.90;;
30133;SDS011;16946;49.984;10.672;2022-08-21T00:26:25;8.30;;;6.27;;
30133;SDS011;16946;49.984;10.672;2022-08-21T00:26:56;7.43;;;6.35;;
30133;SDS011;16946;49.984;10.672;2022-08-21T00:27:26;7.13;;;6.40;;
30133;SDS011;16946;49.984;10.672;2022-08-21T00:27:57;9.00;;;6.80;;
30133;SDS011;16946;49.984;10.672;2022-08-21T00:28:27;7.67;;;6.67;;
30133;SDS011;16946;49.984;10.672;2022-08-21T00:28:58;7.80;;;6.97;;
30133;SDS011;16946;49.984;10.672;2022-08-21T00:29:28;8.30;;;7.47;;
30133;SDS011;16946;49.984;10.672;2022-08-21T00:29:59;8.67;;;7.37;;
30133;SDS011;16946;49.984;10.672;2022-08-21T00:30:30;8.13;;;7.13;;
30133;SDS011;16946;49.984;10.672;2022-08-21T00:31:01;7.20;;;6.50;;
30133;SDS011;16946;49.984;10.672;2022-08-21T00:31:33;7.10;;;6.40;;
30133;SDS011;16946;49.984;10.672;2022-08-21T00:32:04;7.47;;;6.33;;
30133;SDS011;16946;49.984;10.672;2022-08-21T00:32:35;7.27;;;6.57;;
30133;SDS011;16946;49.984;10.672;2022-08-21T00:33:07;8.73;;;6.95;;
30133;SDS011;16946;49.984;10.672;2022-08-21T00:33:39;7.03;;;5.95;;
30133;SDS011;16946;49.984;10.672;2022-08-21T00:34:10;7.27;;;6.57;;
30133;SDS011;16946;49.984;10.672;2022-08-21T00:34:42;7.50;;;6.80;;
30133;SDS011;16946;49.984;10.672;2022-08-21T00:35:14;6.83;;;6.17;;
30133;SDS011;16946;49.984;10.672;2022-08-21T00:35:46;8.43;;;6.70;;
30133;SDS011;16946;49.984;10.672;2022-08-21T00:36:17;7.30;;;6.60;;
30133;SDS011;16946;49.984;10.672;2022-08-21T00:36:47;8.53;;;6.63;;
30133;SDS011;16946;49.984;10.672;2022-08-21T00:37:18;7.13;;;6.40;;
30133;SDS011;16946;49.984;10.672;2022-08-21T00:37:49;6.97;;;6.07;;
30133;SDS011;16946;49.984;10.672;2022-08-21T00:38:19;6.90;;;6.03;;
30133;SDS011;16946;49.984;10.672;2022-08-21T00:38:50;7.40;;;6.20;;
30133;SDS011;16946;49.984;10.672;2022-08-21T00:39:20;7.77;;;6.97;;
30133;SDS011;16946;49.984;10.672;2022-08-21T00:39:51;7.30;;;6.30;;
30133;SDS011;16946;49.984;10.672;2022-08-21T00:40:25;7.60;;;6.50;;
30133;SDS011;16946;49.984;10.672;2022-08-21T00:41:01;7.20;;;6.05;;
30133;SDS011;16946;49.984;10.672;2022-08-21T00:41:34;7.85;;;6.32;;
30133;SDS011;16946;49.984;10.672;2022-08-21T00:42:11;7.88;;;6.22;;
30133;SDS011;16946;49.984;10.672;2022-08-21T00:42:44;6.68;;;5.88;;
30133;SDS011;16946;49.984;10.672;2022-08-21T00:43:17;6.70;;;5.93;;
30133;SDS011;16946;49.984;10.672;2022-08-21T00:43:50;6.50;;;5.88;;
30133;SDS011;16946;49.984;10.672;2022-08-21T00:44:21;6.60;;;5.90;;
30133;SDS011;16946;49.984;10.672;2022-08-21T00:44:52;7.83;;;6.70;;
30133;SDS011;16946;49.984;10.672;2022-08-21T00:45:22;6.47;;;5.87;;
30133;SDS011;16946;49.984;10.672;2022-08-21T00:45:53;6.63;;;5.93;;
30133;SDS011;16946;49.984;10.672;2022-08-21T00:46:25;6.78;;;6.03;;
30133;SDS011;16946;49.984;10.672;2022-08-21T00:46:55;7.93;;;5.90;;
30133;SDS011;16946;49.984;10.672;2022-08-21T00:47:26;6.20;;;5.60;;
30133;SDS011;16946;49.984;10.672;2022-08-21T00:47:57;7.27;;;6.07;;
30133;SDS011;16946;49.984;10.672;2022-08-21T00:48:28;5.70;;;5.10;;
30133;SDS011;16946;49.984;10.672;2022-08-21T00:48:58;6.97;;;5.97;;
30133;SDS011;16946;49.984;10.672;2022-08-21T00:49:29;6.87;;;6.17;;
30133;SDS011;16946;49.984;10.672;2022-08-21T00:49:59;7.07;;;6.30;;
30133;SDS011;16946;49.984;10.672;2022-08-21T00:50:31;8.37;;;6.33;;
30133;SDS011;16946;49.984;10.672;2022-08-21T00:51:07;7.15;;;6.45;;
30133;SDS011;16946;49.984;10.672;2022-08-21T00:51:55;5.57;;;5.07;;
30133;SDS011;16946;49.984;10.672;2022-08-21T00:52:30;5.13;;;4.38;;
30133;SDS011;16946;49.984;10.672;2022-08-21T00:53:02;8.55;;;5.43;;
30133;SDS011;16946;49.984;10.672;2022-08-21T00:53:36;6.63;;;5.78;;
30133;SDS011;16946;49.984;10.672;2022-08-21T00:54:09;6.22;;;5.63;;
30133;SDS011;16946;49.984;10.672;2022-08-21T00:54:42;6.93;;;6.22;;
30133;SDS011;16946;49.984;10.672;2022-08-21T00:55:13;6.45;;;5.35;;
30133;SDS011;16946;49.984;10.672;2022-08-21T00:55:45;7.00;;;6.30;;
30133;SDS011;16946;49.984;10.672;2022-08-21T00:56:16;8.40;;;6.38;;
30133;SDS011;16946;49.984;10.672;2022-08-21T00:56:48;6.17;;;5.57;;
30133;SDS011;16946;49.984;10.672;2022-08-21T00:57:42;7.70;;;5.97;;
30133;SDS011;16946;49.984;10.672;2022-08-21T00:58:17;7.18;;;6.45;;
30133;SDS011;16946;49.984;10.672;2022-08-21T00:58:48;7.63;;;6.82;;
30133;SDS011;16946;49.984;10.672;2022-08-21T00:59:20;8.88;;;6.60;;
30133;SDS011;16946;49.984;10.672;2022-08-21T00:59:52;9.65;;;7.30;;
30133;SDS011;16946;49.984;10.672;2022-08-21T01:00:27;10.23;;;8.35;;
30133;SDS011;16946;49.984;10.672;2022-08-21T01:01:02;10.48;;;7.72;;
30133;SDS011;16946;49.984;10.672;2022-08-21T01:01:34;9.48;;;7.18;;
30133;SDS011;16946;49.984;10.672;2022-08-21T01:02:06;10.80;;;7.55;;
30133;SDS011;16946;49.984;10.672;2022-08-21T01:02:38;9.18;;;7.25;;
30133;SDS011;16946;49.984;10.672;2022-08-21T01:03:11;10.85;;;8.10;;
30133;SDS011;16946;49.984;10.672;2022-08-21T01:03:44;11.23;;;7.38;;
30133;SDS011;16946;49.984;10.672;2022-08-21T01:04:16;11.00;;;7.32;;
30133;SDS011;16946;49.984;10.672;2022-08-21T01:04:46;9.60;;;7.22;;
30133;SDS011;16946;49.984;10.672;2022-08-21T01:05:18;9.27;;;7.10;;
30133;SDS011;16946;49.984;10.672;2022-08-21T01:05:48;12.53;;;7.07;;
30133;SDS011;16946;49.984;10.672;2022-08-21T01:06:19;9.15;;;7.30;;
30133;SDS011;16946;49.984;10.672;2022-08-21T01:06:50;11.03;;;7.80;;
30133;SDS011;16946;49.984;10.672;2022-08-21T01:07:21;9.47;;;7.60;;
30133;SDS011;16946;49.984;10.672;2022-08-21T01:07:52;11.13;;;7.23;;
30133;SDS011;16946;49.984;10.672;2022-08-21T01:08:23;11.40;;;7.78;;
30133;SDS011;16946;49.984;10.672;2022-08-21T01:08:54;21.70;;;8.82;;
30133;SDS011;16946;49.984;10.672;2022-08-21T01:09:25;12.80;;;8.00;;
30133;SDS011;16946;49.984;10.672;2022-08-21T01:09:56;18.07;;;9.50;;
30133;SDS011;16946;49.984;10.672;2022-08-21T01:10:27;16.80;;;8.43;;
30133;SDS011;16946;49.984;10.672;2022-08-21T01:10:58;15.77;;;9.55;;
30133;SDS011;16946;49.984;10.672;2022-08-21T01:11:30;17.42;;;9.30;;
30133;SDS011;16946;49.984;10.672;2022-08-21T01:12:01;20.83;;;9.80;;
30133;SDS011;16946;49.984;10.672;2022-08-21T01:12:33;21.95;;;9.45;;
30133;SDS011;16946;49.984;10.672;2022-08-21T01:13:05;45.97;;;12.43;;
30133;SDS011;16946;49.984;10.672;2022-08-21T01:13:37;51.92;;;13.32;;
30133;SDS011;16946;49.984;10.672;2022-08-21T01:14:14;60.55;;;13.07;;
30133;SDS011;16946;49.984;10.672;2022-08-21T01:14:45;41.72;;;12.68;;
30133;SDS011;16946;49.984;10.672;2022-08-21T01:15:16;26.47;;;11.23;;
30133;SDS011;16946;49.984;10.672;2022-08-21T01:15:48;28.23;;;11.27;;
30133;SDS011;16946;49.984;10.672;2022-08-21T01:16:22;18.35;;;10.32;;
30133;SDS011;16946;49.984;10.672;2022-08-21T01:16:53;22.60;;;11.20;;
30133;SDS011;16946;49.984;10.672;2022-08-21T01:17:25;23.77;;;11.98;;
30133;SDS011;16946;49.984;10.672;2022-08-21T01:17:57;20.05;;;11.35;;
30133;SDS011;16946;49.984;10.672;2022-08-21T01:18:27;21.03;;;12.47;;
30133;SDS011;16946;49.984;10.672;2022-08-21T01:18:58;26.97;;;12.83;;
30133;SDS011;16946;49.984;10.672;2022-08-21T01:19:29;28.30;;;12.63;;
30133;SDS011;16946;49.984;10.672;2022-08-21T01:20:00;19.47;;;11.53;;
30133;SDS011;16946;49.984;10.672;2022-08-21T01:20:36;18.45;;;11.43;;
30133;SDS011;16946;49.984;10.672;2022-08-21T01:21:09;26.23;;;13.25;;
30133;SDS011;16946;49.984;10.672;2022-08-21T01:21:41;24.67;;;12.50;;
30133;SDS011;16946;49.984;10.672;2022-08-21T01:22:12;42.55;;;13.15;;
30133;SDS011;16946;49.984;10.672;2022-08-21T01:22:43;29.80;;;13.53;;
30133;SDS011;16946;49.984;10.672;2022-08-21T01:23:13;18.67;;;11.87;;
30133;SDS011;16946;49.984;10.672;2022-08-21T01:23:44;24.03;;;13.00;;
30133;SDS011;16946;49.984;10.672;2022-08-21T01:24:17;25.42;;;12.35;;
30133;SDS011;16946;49.984;10.672;2022-08-21T01:24:48;21.73;;;13.20;;
30133;SDS011;16946;49.984;10.672;2022-08-21T01:25:20;36.75;;;13.60;;
30133;SDS011;16946;49.984;10.672;2022-08-21T01:25:50;44.20;;;14.13;;
30133;SDS011;16946;49.984;10.672;2022-08-21T01:26:23;30.53;;;12.20;;
30133;SDS011;16946;49.984;10.672;2022-08-21T01:26:56;20.65;;;10.75;;
30133;SDS011;16946;49.984;10.672;2022-08-21T01:27:27;34.20;;;12.30;;
30133;SDS011;16946;49.984;10.672;2022-08-21T01:27:59;36.67;;;12.80;;
30133;SDS011;16946;49.984;10.672;2022-08-21T01:28:36;33.42;;;12.15;;
30133;SDS011;16946;49.984;10.672;2022-08-21T01:29:36;29.25;;;11.82;;
30133;SDS011;16946;49.984;10.672;2022-08-21T01:30:16;23.17;;;10.43;;
30133;SDS011;16946;49.984;10.672;2022-08-21T01:30:50;21.23;;;9.68;;
30133;SDS011;16946;49.984;10.672;2022-08-21T01:31:24;16.17;;;9.63;;
30133;SDS011;16946;49.984;10.672;2022-08-21T01:31:56;21.58;;;9.55;;
30133;SDS011;16946;49.984;10.672;2022-08-21T01:32:28;20.98;;;10.50;;
30133;SDS011;16946;49.984;10.672;2022-08-21T01:32:58;18.47;;;9.47;;
30133;SDS011;16946;49.984;10.672;2022-08-21T01:33:29;24.27;;;10.77;;
30133;SDS011;16946;49.984;10.672;2022-08-21T01:33:59;14.03;;;9.33;;
30133;SDS011;16946;49.984;10.672;2022-08-21T01:34:30;20.37;;;9.10;;
30133;SDS011;16946;49.984;10.672;2022-08-21T01:35:03;15.02;;;9.57;;
30133;SDS011;16946;49.984;10.672;2022-08-21T01:35:34;13.77;;;8.60;;
30133;SDS011;16946;49.984;10.672;2022-08-21T01:36:05;22.60;;;10.07;;
30133;SDS011;16946;49.984;10.672;2022-08-21T01:36:36;23.87;;;10.43;;
30133;SDS011;16946;49.984;10.672;2022-08-21T01:37:06;28.20;;;10.73;;
30133;SDS011;16946;49.984;10.672;2022-08-21T01:37:37;14.60;;;10.30;;
30133;SDS011;16946;49.984;10.672;2022-08-21T01:38:08;22.50;;;9.53;;
30133;SDS011;16946;49.984;10.672;2022-08-21T01:38:39;26.13;;;10.53;;
30133;SDS011;16946;49.984;10.672;2022-08-21T01:39:09;38.30;;;10.53;;
30133;SDS011;16946;49.984;10.672;2022-08-21T01:39:40;19.20;;;9.20;;
30133;SDS011;16946;49.984;10.672;2022-08-21T01:40:12;20.92;;;10.38;;
30133;SDS011;16946;49.984;10.672;2022-08-21T01:40:45;15.75;;;9.60;;
30133;SDS011;16946;49.984;10.672;2022-08-21T01:41:16;14.03;;;9.00;;
30133;SDS011;16946;49.984;10.672;2022-08-21T01:41:47;20.43;;;9.67;;
30133;SDS011;16946;49.984;10.672;2022-08-21T01:42:17;47.63;;;13.00;;
30133;SDS011;16946;49.984;10.672;2022-08-21T01:42:48;25.23;;;10.20;;
30133;SDS011;16946;49.984;10.672;2022-08-21T01:43:18;24.10;;;9.83;;
30133;SDS011;16946;49.984;10.672;2022-08-21T01:43:49;23.03;;;9.43;;
30133;SDS011;16946;49.984;10.672;2022-08-21T01:44:21;45.60;;;10.77;;
30133;SDS011;16946;49.984;10.672;2022-08-21T01:44:52;22.23;;;10.70;;
30133;SDS011;16946;49.984;10.672;2022-08-21T01:45:23;58.80;;;11.47;;
30133;SDS011;16946;49.984;10.672;2022-08-21T01:45:53;43.57;;;10.80;;
30133;SDS011;16946;49.984;10.672;2022-08-21T01:46:24;42.30;;;10.73;;
30133;SDS011;16946;49.984;10.672;2022-08-21T01:46:55;21.10;;;10.17;;
30133;SDS011;16946;49.984;10.672;2022-08-21T01:47:28;31.17;;;10.40;;
30133;SDS011;16946;49.984;10.672;2022-08-21T01:47:59;54.97;;;11.13;;
30133;SDS011;16946;49.984;10.672;2022-08-21T01:48:29;29.03;;;9.73;;
30133;SDS011;16946;49.984;10.672;2022-08-21T01:49:00;25.80;;;9.10;;
30133;SDS011;16946;49.984;10.672;2022-08-21T01:49:30;79.97;;;14.07;;
30133;SDS011;16946;49.984;10.672;2022-08-21T01:50:03;37.33;;;11.03;;
30133;SDS011;16946;49.984;10.672;2022-08-21T01:50:37;29.77;;;10.00;;
30133;SDS011;16946;49.984;10.672;2022-08-21T01:51:07;24.42;;;9.80;;
30133;SDS011;16946;49.984;10.672;2022-08-21T01:51:38;20.50;;;9.82;;
30133;SDS011;16946;49.984;10.672;2022-08-21T01:52:09;16.63;;;10.57;;
30133;SDS011;16946;49.984;10.672;2022-08-21T01:52:40;15.48;;;9.27;;
30133;SDS011;16946;49.984;10.672;2022-08-21T01:53:11;17.13;;;9.55;;
30133;SDS011;16946;49.984;10.672;2022-08-21T01:53:43;24.27;;;9.73;;
30133;SDS011;16946;49.984;10.672;2022-08-21T01:54:13;92.47;;;15.47;;
30133;SDS011;16946;49.984;10.672;2022-08-21T01:54:44;29.53;;;9.93;;
30133;SDS011;16946;49.984;10.672;2022-08-21T01:55:15;83.70;;;14.70;;
30133;SDS011;16946;49.984;10.672;2022-08-21T01:55:47;29.88;;;10.88;;
30133;SDS011;16946;49.984;10.672;2022-08-21T01:56:18;27.40;;;10.70;;
30133;SDS011;16946;49.984;10.672;2022-08-21T01:56:50;31.10;;;10.07;;
30133;SDS011;16946;49.984;10.672;2022-08-21T01:57:22;18.33;;;9.15;;
30133;SDS011;16946;49.984;10.672;2022-08-21T01:57:54;20.98;;;8.50;;
30133;SDS011;16946;49.984;10.672;2022-08-21T01:58:24;18.93;;;8.70;;
30133;SDS011;16946;49.984;10.672;2022-08-21T01:58:55;14.10;;;8.00;;
30133;SDS011;16946;49.984;10.672;2022-08-21T01:59:26;25.50;;;9.27;;
30133;SDS011;16946;49.984;10.672;2022-08-21T01:59:56;23.60;;;8.63;;
30133;SDS011;16946;49.984;10.672;2022-08-21T02:00:27;17.70;;;8.80;;
30133;SDS011;16946;49.984;10.672;2022-08-21T02:00:58;12.33;;;8.50;;
30133;SDS011;16946;49.984;10.672;2022-08-21T02:01:28;21.40;;;8.73;;
30133;SDS011;16946;49.984;10.672;2022-08-21T02:01:59;10.40;;;9.13;;
30133;SDS011;16946;49.984;10.672;2022-08-21T02:02:29;15.47;;;8.97;;
30133;SDS011;16946;49.984;10.672;2022-08-21T02:03:00;11.13;;;7.60;;
30133;SDS011;16946;49.984;10.672;2022-08-21T02:03:30;14.17;;;8.00;;
30133;SDS011;16946;49.984;10.672;2022-08-21T02:04:01;16.33;;;8.87;;
30133;SDS011;16946;49.984;10.672;2022-08-21T02:04:32;15.83;;;9.30;;
30133;SDS011;16946;49.984;10.672;2022-08-21T02:05:03;18.43;;;8.73;;
30133;SDS011;16946;49.984;10.672;2022-08-21T02:05:35;23.15;;;9.00;;
30133;SDS011;16946;49.984;10.672;2022-08-21T02:06:05;13.80;;;8.67;;
30133;SDS011;16946;49.984;10.672;2022-08-21T02:06:37;11.70;;;7.60;;
30133;SDS011;16946;49.984;10.672;2022-08-21T02:07:08;11.70;;;7.88;;
30133;SDS011;16946;49.984;10.672;2022-08-21T02:07:43;16.67;;;9.07;;
30133;SDS011;16946;49.984;10.672;2022-08-21T02:08:16;11.82;;;8.73;;
30133;SDS011;16946;49.984;10.672;2022-08-21T02:08:46;13.40;;;8.40;;
30133;SDS011;16946;49.984;10.672;2022-08-21T02:09:17;9.13;;;7.50;;
30133;SDS011;16946;49.984;10.672;2022-08-21T02:09:48;9.20;;;8.23;;
30133;SDS011;16946;49.984;10.672;2022-08-21T02:10:21;9.97;;;8.17;;
30133;SDS011;16946;49.984;10.672;2022-08-21T02:10:53;12.60;;;8.73;;
30133;SDS011;16946;49.984;10.672;2022-08-21T02:11:24;14.40;;;10.10;;
30133;SDS011;16946;49.984;10.672;2022-08-21T02:11:55;9.17;;;8.20;;
30133;SDS011;16946;49.984;10.672;2022-08-21T02:12:26;7.68;;;6.97;;
30133;SDS011;16946;49.984;10.672;2022-08-21T02:12:57;8.60;;;7.80;;
30133;SDS011;16946;49.984;10.672;2022-08-21T02:13:29;7.43;;;6.72;;
30133;SDS011;16946;49.984;10.672;2022-08-21T02:14:00;7.20;;;6.47;;
30133;SDS011;16946;49.984;10.672;2022-08-21T02:14:30;8.17;;;7.37;;
30133;SDS011;16946;49.984;10.672;2022-08-21T02:15:01;7.93;;;7.00;;
30133;SDS011;16946;49.984;10.672;2022-08-21T02:15:33;7.78;;;7.07;;
30133;SDS011;16946;49.984;10.672;2022-08-21T02:16:04;9.43;;;7.13;;
30133;SDS011;16946;49.984;10.672;2022-08-21T02:16:36;7.05;;;6.38;;
30133;SDS011;16946;49.984;10.672;2022-08-21T02:17:08;6.82;;;6.22;;
30133;SDS011;16946;49.984;10.672;2022-08-21T02:17:42;6.93;;;6.33;;
30133;SDS011;16946;49.984;10.672;2022-08-21T02:18:14;9.35;;;6.85;;
30133;SDS011;16946;49.984;10.672;2022-08-21T02:18:45;7.03;;;6.40;;
30133;SDS011;16946;49.984;10.672;2022-08-21T02:19:17;6.88;;;6.28;;
30133;SDS011;16946;49.984;10.672;2022-08-21T02:19:47;7.60;;;6.90;;
30133;SDS011;16946;49.984;10.672;2022-08-21T02:20:20;6.90;;;6.30;;
30133;SDS011;16946;49.984;10.672;2022-08-21T02:20:59;6.75;;;6.15;;
30133;SDS011;16946;49.984;10.672;2022-08-21T02:21:29;6.37;;;5.87;;
30133;SDS011;16946;49.984;10.672;2022-08-21T02:22:00;6.77;;;6.17;;
30133;SDS011;16946;49.984;10.672;2022-08-21T02:22:30;6.90;;;6.30;;
30133;SDS011;16946;49.984;10.672;2022-08-21T02:23:01;6.40;;;5.80;;
30133;SDS011;16946;49.984;10.672;2022-08-21T02:23:34;5.68;;;5.18;;
30133;SDS011;16946;49.984;10.672;2022-08-21T02:24:05;5.83;;;5.33;;
30133;SDS011;16946;49.984;10.672;2022-08-21T02:24:36;5.18;;;4.78;;
30133;SDS011;16946;49.984;10.672;2022-08-21T02:25:07;5.50;;;5.10;;
30133;SDS011;16946;49.984;10.672;2022-08-21T02:25:38;5.73;;;5.23;;
30133;SDS011;16946;49.984;10.672;2022-08-21T02:26:09;5.07;;;4.68;;
30133;SDS011;16946;49.984;10.672;2022-08-21T02:26:40;5.05;;;4.60;;
30133;SDS011;16946;49.984;10.672;2022-08-21T02:27:10;5.37;;;4.97;;
30133;SDS011;16946;49.984;10.672;2022-08-21T02:27:42;5.47;;;5.07;;
30133;SDS011;16946;49.984;10.672;2022-08-21T02:28:14;4.95;;;4.55;;
30133;SDS011;16946;49.984;10.672;2022-08-21T02:28:45;5.22;;;4.82;;
30133;SDS011;16946;49.984;10.672;2022-08-21T02:29:16;4.90;;;4.50;;
30133;SDS011;16946;49.984;10.672;2022-08-21T02:29:46;5.10;;;4.70;;
30133;SDS011;16946;49.984;10.672;2022-08-21T02:30:19;4.40;;;4.00;;
30133;SDS011;16946;49.984;10.672;2022-08-21T02:30:52;5.55;;;5.05;;
30133;SDS011;16946;49.984;10.672;2022-08-21T02:31:24;5.45;;;5.00;;
30133;SDS011;16946;49.984;10.672;2022-08-21T02:31:54;4.57;;;4.17;;
30133;SDS011;16946;49.984;10.672;2022-08-21T02:32:25;4.73;;;4.33;;
30133;SDS011;16946;49.984;10.672;2022-08-21T02:32:55;4.83;;;4.40;;
30133;SDS011;16946;49.984;10.672;2022-08-21T02:33:27;5.38;;;4.97;;
30133;SDS011;16946;49.984;10.672;2022-08-21T02:33:58;4.60;;;4.20;;
30133;SDS011;16946;49.984;10.672;2022-08-21T02:34:29;5.75;;;5.25;;
30133;SDS011;16946;49.984;10.672;2022-08-21T02:34:59;5.23;;;4.83;;
30133;SDS011;16946;49.984;10.672;2022-08-21T02:35:30;5.37;;;4.87;;
30133;SDS011;16946;49.984;10.672;2022-08-21T02:36:01;4.73;;;3.93;;
30133;SDS011;16946;49.984;10.672;2022-08-21T02:36:33;3.75;;;3.45;;
30133;SDS011;16946;49.984;10.672;2022-08-21T02:37:03;4.30;;;3.93;;
30133;SDS011;16946;49.984;10.672;2022-08-21T02:37:42;4.80;;;4.40;;
30133;SDS011;16946;49.984;10.672;2022-08-21T02:38:26;4.25;;;3.95;;
30133;SDS011;16946;49.984;10.672;2022-08-21T02:38:58;4.60;;;4.20;;
30133;SDS011;16946;49.984;10.672;2022-08-21T02:39:29;4.97;;;3.80;;
30133;SDS011;16946;49.984;10.672;2022-08-21T02:40:00;4.60;;;4.20;;
30133;SDS011;16946;49.984;10.672;2022-08-21T02:40:32;3.85;;;3.55;;
30133;SDS011;16946;49.984;10.672;2022-08-21T02:41:05;4.70;;;4.30;;
30133;SDS011;16946;49.984;10.672;2022-08-21T02:41:38;4.32;;;3.92;;
30133;SDS011;16946;49.984;10.672;2022-08-21T02:42:09;4.53;;;4.13;;
30133;SDS011;16946;49.984;10.672;2022-08-21T02:42:39;3.87;;;3.57;;
30133;SDS011;16946;49.984;10.672;2022-08-21T02:43:10;3.90;;;3.60;;
30133;SDS011;16946;49.984;10.672;2022-08-21T02:43:40;4.37;;;4.07;;
30133;SDS011;16946;49.984;10.672;2022-08-21T02:44:12;4.10;;;3.80;;
30133;SDS011;16946;49.984;10.672;2022-08-21T02:44:42;4.40;;;3.90;;
30133;SDS011;16946;49.984;10.672;2022-08-21T02:45:13;6.00;;;3.80;;
30133;SDS011;16946;49.984;10.672;2022-08-21T02:45:45;4.57;;;4.18;;
30133;SDS011;16946;49.984;10.672;2022-08-21T02:46:18;4.20;;;3.88;;
30133;SDS011;16946;49.984;10.672;2022-08-21T02:46:50;3.70;;;3.40;;
30133;SDS011;16946;49.984;10.672;2022-08-21T02:47:20;4.73;;;3.97;;
30133;SDS011;16946;49.984;10.672;2022-08-21T02:47:55;4.50;;;4.13;;
30133;SDS011;16946;49.984;10.672;2022-08-21T02:48:28;5.05;;;4.55;;
30133;SDS011;16946;49.984;10.672;2022-08-21T02:48:59;4.50;;;4.10;;
30133;SDS011;16946;49.984;10.672;2022-08-21T02:49:30;5.10;;;4.70;;
30133;SDS011;16946;49.984;10.672;2022-08-21T02:50:01;5.20;;;3.53;;
30133;SDS011;16946;49.984;10.672;2022-08-21T02:50:33;6.68;;;4.20;;
30133;SDS011;16946;49.984;10.672;2022-08-21T02:51:13;4.63;;;4.22;;
30133;SDS011;16946;49.984;10.672;2022-08-21T02:51:47;4.18;;;3.80;;
30133;SDS011;16946;49.984;10.672;2022-08-21T02:52:17;5.00;;;4.60;;
30133;SDS011;16946;49.984;10.672;2022-08-21T02:52:48;14.13;;;4.77;;
30133;SDS011;16946;49.984;10.672;2022-08-21T02:53:19;8.35;;;4.78;;
30133;SDS011;16946;49.984;10.672;2022-08-21T02:53:51;7.32;;;4.32;;
30133;SDS011;16946;49.984;10.672;2022-08-21T02:54:22;6.90;;;4.32;;
30133;SDS011;16946;49.984;10.672;2022-08-21T02:54:53;11.27;;;4.80;;
30133;SDS011;16946;49.984;10.672;2022-08-21T02:55:24;10.47;;;5.37;;
30133;SDS011;16946;49.984;10.672;2022-08-21T02:55:57;5.78;;;4.47;;
30133;SDS011;16946;49.984;10.672;2022-08-21T02:56:30;5.00;;;4.45;;
30133;SDS011;16946;49.984;10.672;2022-08-21T02:57:00;6.30;;;5.03;;
30133;SDS011;16946;49.984;10.672;2022-08-21T02:57:31;6.63;;;4.90;;
30133;SDS011;16946;49.984;10.672;2022-08-21T02:58:02;9.52;;;4.65;;
30133;SDS011;16946;49.984;10.672;2022-08-21T02:58:37;7.20;;;4.30;;
30133;SDS011;16946;49.984;10.672;2022-08-21T02:59:10;6.50;;;4.93;;
30133;SDS011;16946;49.984;10.672;2022-08-21T02:59:40;8.97;;;4.53;;
30133;SDS011;16946;49.984;10.672;2022-08-21T03:00:11;6.80;;;4.33;;
30133;SDS011;16946;49.984;10.672;2022-08-21T03:00:43;6.38;;;5.05;;
30133;SDS011;16946;49.984;10.672;2022-08-21T03:01:14;6.20;;;4.22;;
30133;SDS011;16946;49.984;10.672;2022-08-21T03:01:45;6.93;;;4.40;;
30133;SDS011;16946;49.984;10.672;2022-08-21T03:02:16;4.50;;;4.10;;
30133;SDS011;16946;49.984;10.672;2022-08-21T03:02:47;4.97;;;3.90;;
30133;SDS011;16946;49.984;10.672;2022-08-21T03:03:18;3.88;;;3.58;;
30133;SDS011;16946;49.984;10.672;2022-08-21T03:03:51;4.78;;;4.38;;
30133;SDS011;16946;49.984;10.672;2022-08-21T03:04:21;5.37;;;4.20;;
30133;SDS011;16946;49.984;10.672;2022-08-21T03:04:52;4.37;;;3.97;;
30133;SDS011;16946;49.984;10.672;2022-08-21T03:05:23;4.00;;;3.70;;
30133;SDS011;16946;49.984;10.672;2022-08-21T03:05:55;5.22;;;4.35;;
30133;SDS011;16946;49.984;10.672;2022-08-21T03:06:25;4.80;;;4.40;;
30133;SDS011;16946;49.984;10.672;2022-08-21T03:06:56;4.83;;;3.70;;
30133;SDS011;16946;49.984;10.672;2022-08-21T03:07:26;4.63;;;4.20;;